sensor_id;sensor_type;location;lat;lon;timestamp;temperature;humidity
53876;DHT22;39789;53.216;5.624;2022-11-15T00:00:16;7.70;99.90
53876;DHT22;39789;53.216;5.624;2022-11-15T00:02:42;7.70;99.90
53876;DHT22;39789;53.216;5.624;2022-11-15T00:05:08;7.60;99.90
53876;DHT22;39789;53.216;5.624;2022-11-15T00:07:33;7.60;99.90
53876;DHT22;39789;53.216;5.624;2022-11-15T00:09:59;7.60;99.90
53876;DHT22;39789;53.216;5.624;2022-11-15T00:12:24;7.60;99.90
53876;DHT22;39789;53.216;5.624;2022-11-15T00:14:50;7.60;99.90
53876;DHT22;39789;53.216;5.624;2022-11-15T00:17:15;7.60;99.90
53876;DHT22;39789;53.216;5.624;2022-11-15T00:19:41;7.60;99.90
53876;DHT22;39789;53.216;5.624;2022-11-15T00:22:06;7.60;99.90
53876;DHT22;39789;53.216;5.624;2022-11-15T00:24:32;7.60;99.90
53876;DHT22;39789;53.216;5.624;2022-11-15T00:26:57;7.60;99.90
53876;DHT22;39789;53.216;5.624;2022-11-15T00:29:23;7.60;99.90
53876;DHT22;39789;53.216;5.624;2022-11-15T00:31:48;7.60;99.90
53876;DHT22;39789;53.216;5.624;2022-11-15T00:34:14;7.60;99.90
53876;DHT22;39789;53.216;5.624;2022-11-15T00:36:39;7.60;99.90
53876;DHT22;39789;53.216;5.624;2022-11-15T00:39:05;7.60;99.90
53876;DHT22;39789;53.216;5.624;2022-11-15T00:41:31;7.60;99.90
53876;DHT22;39789;53.216;5.624;2022-11-15T00:43:56;7.60;99.90
53876;DHT22;39789;53.216;5.624;2022-11-15T00:46:22;7.50;99.90
53876;DHT22;39789;53.216;5.624;2022-11-15T00:48:48;7.50;99.90
53876;DHT22;39789;53.216;5.624;2022-11-15T00:51:13;7.50;99.90
53876;DHT22;39789;53.216;5.624;2022-11-15T00:53:39;7.50;99.90
53876;DHT22;39789;53.216;5.624;2022-11-15T00:56:04;7.50;99.90
53876;DHT22;39789;53.216;5.624;2022-11-15T00:58:30;7.40;99.90
53876;DHT22;39789;53.216;5.624;2022-11-15T01:00:56;7.40;99.90
53876;DHT22;39789;53.216;5.624;2022-11-15T01:03:22;7.30;99.90
53876;DHT22;39789;53.216;5.624;2022-11-15T01:05:47;7.30;99.90
53876;DHT22;39789;53.216;5.624;2022-11-15T01:08:14;7.20;99.90
53876;DHT22;39789;53.216;5.624;2022-11-15T01:10:40;7.10;99.90
53876;DHT22;39789;53.216;5.624;2022-11-15T01:13:06;7.10;99.90
53876;DHT22;39789;53.216;5.624;2022-11-15T01:15:32;7.10;99.90
53876;DHT22;39789;53.216;5.624;2022-11-15T01:17:57;7.00;99.90
53876;DHT22;39789;53.216;5.624;2022-11-15T01:20:23;6.90;99.90
53876;DHT22;39789;53.216;5.624;2022-11-15T01:22:48;6.90;99.90
53876;DHT22;39789;53.216;5.624;2022-11-15T01:25:14;6.90;99.90
53876;DHT22;39789;53.216;5.624;2022-11-15T01:27:40;6.80;99.90
53876;DHT22;39789;53.216;5.624;2022-11-15T01:30:06;6.80;99.90
53876;DHT22;39789;53.216;5.624;2022-11-15T01:32:31;6.80;99.90
53876;DHT22;39789;53.216;5.624;2022-11-15T01:34:57;6.80;99.90
53876;DHT22;39789;53.216;5.624;2022-11-15T01:37:23;6.80;99.90
53876;DHT22;39789;53.216;5.624;2022-11-15T01:39:48;6.70;99.90
53876;DHT22;39789;53.216;5.624;2022-11-15T01:42:14;6.80;99.90
53876;DHT22;39789;53.216;5.624;2022-11-15T01:44:43;6.70;99.90
53876;DHT22;39789;53.216;5.624;2022-11-15T01:47:16;6.70;99.90
53876;DHT22;39789;53.216;5.624;2022-11-15T01:52:19;6.60;99.90
53876;DHT22;39789;53.216;5.624;2022-11-15T01:54:46;6.60;99.90
53876;DHT22;39789;53.216;5.624;2022-11-15T01:57:13;6.50;99.90
53876;DHT22;39789;53.216;5.624;2022-11-15T01:59:41;6.40;99.90
53876;DHT22;39789;53.216;5.624;2022-11-15T02:02:08;6.40;99.90
53876;DHT22;39789;53.216;5.624;2022-11-15T02:04:40;6.30;99.90
53876;DHT22;39789;53.216;5.624;2022-11-15T02:07:08;6.30;99.90
53876;DHT22;39789;53.216;5.624;2022-11-15T02:09:36;6.30;99.90
53876;DHT22;39789;53.216;5.624;2022-11-15T02:12:02;6.30;99.90
53876;DHT22;39789;53.216;5.624;2022-11-15T02:14:29;6.30;99.90
53876;DHT22;39789;53.216;5.624;2022-11-15T02:17:24;6.30;99.90
53876;DHT22;39789;53.216;5.624;2022-11-15T02:29:26;6.30;99.90
53876;DHT22;39789;53.216;5.624;2022-11-15T02:32:02;6.30;99.90
53876;DHT22;39789;53.216;5.624;2022-11-15T02:34:38;6.40;99.90
53876;DHT22;39789;53.216;5.624;2022-11-15T02:37:16;6.40;99.90
53876;DHT22;39789;53.216;5.624;2022-11-15T02:39:51;6.40;99.90
53876;DHT22;39789;53.216;5.624;2022-11-15T02:42:25;6.40;99.90
53876;DHT22;39789;53.216;5.624;2022-11-15T02:45:13;6.40;99.90
53876;DHT22;39789;53.216;5.624;2022-11-15T02:47:45;6.40;99.90
53876;DHT22;39789;53.216;5.624;2022-11-15T02:50:15;6.40;99.90
53876;DHT22;39789;53.216;5.624;2022-11-15T02:52:45;6.40;99.90
53876;DHT22;39789;53.216;5.624;2022-11-15T02:55:37;6.50;99.90
53876;DHT22;39789;53.216;5.624;2022-11-15T03:01:51;6.50;99.90
53876;DHT22;39789;53.216;5.624;2022-11-15T03:04:43;6.50;99.90
53876;DHT22;39789;53.216;5.624;2022-11-15T03:07:28;6.50;99.90
53876;DHT22;39789;53.216;5.624;2022-11-15T03:10:06;6.60;99.90
53876;DHT22;39789;53.216;5.624;2022-11-15T03:12:41;6.50;99.90
53876;DHT22;39789;53.216;5.624;2022-11-15T03:15:20;6.60;99.90
53876;DHT22;39789;53.216;5.624;2022-11-15T03:17:55;6.60;99.90
53876;DHT22;39789;53.216;5.624;2022-11-15T03:20:25;6.60;99.90
53876;DHT22;39789;53.216;5.624;2022-11-15T03:22:53;6.60;99.90
53876;DHT22;39789;53.216;5.624;2022-11-15T03:25:22;6.60;99.90
53876;DHT22;39789;53.216;5.624;2022-11-15T03:27:52;6.60;99.90
53876;DHT22;39789;53.216;5.624;2022-11-15T03:30:19;6.60;99.90
53876;DHT22;39789;53.216;5.624;2022-11-15T03:32:49;6.70;99.90
53876;DHT22;39789;53.216;5.624;2022-11-15T03:35:25;6.60;99.90
53876;DHT22;39789;53.216;5.624;2022-11-15T03:37:59;6.70;99.90
53876;DHT22;39789;53.216;5.624;2022-11-15T03:40:33;6.70;99.90
53876;DHT22;39789;53.216;5.624;2022-11-15T03:45:44;6.70;99.90
53876;DHT22;39789;53.216;5.624;2022-11-15T03:48:20;6.70;99.90
53876;DHT22;39789;53.216;5.624;2022-11-15T03:50:47;6.70;99.90
53876;DHT22;39789;53.216;5.624;2022-11-15T03:53:13;6.70;99.90
53876;DHT22;39789;53.216;5.624;2022-11-15T03:55:39;6.80;99.90
53876;DHT22;39789;53.216;5.624;2022-11-15T03:58:05;6.70;99.90
53876;DHT22;39789;53.216;5.624;2022-11-15T04:00:30;6.70;99.90
53876;DHT22;39789;53.216;5.624;2022-11-15T04:02:56;6.70;99.90
53876;DHT22;39789;53.216;5.624;2022-11-15T04:05:21;6.70;99.90
53876;DHT22;39789;53.216;5.624;2022-11-15T04:07:47;6.70;99.90
53876;DHT22;39789;53.216;5.624;2022-11-15T04:10:13;6.80;99.90
53876;DHT22;39789;53.216;5.624;2022-11-15T04:12:40;6.70;99.90
53876;DHT22;39789;53.216;5.624;2022-11-15T04:15:13;6.70;99.90
53876;DHT22;39789;53.216;5.624;2022-11-15T04:17:44;6.70;99.90
53876;DHT22;39789;53.216;5.624;2022-11-15T04:20:11;6.80;99.90
53876;DHT22;39789;53.216;5.624;2022-11-15T04:22:57;6.80;99.90
53876;DHT22;39789;53.216;5.624;2022-11-15T04:25:43;6.80;99.90
53876;DHT22;39789;53.216;5.624;2022-11-15T04:28:09;6.80;99.90
53876;DHT22;39789;53.216;5.624;2022-11-15T04:30:35;6.80;99.90
53876;DHT22;39789;53.216;5.624;2022-11-15T04:33:01;6.90;99.90
53876;DHT22;39789;53.216;5.624;2022-11-15T04:35:27;6.80;99.90
53876;DHT22;39789;53.216;5.624;2022-11-15T04:37:53;6.90;99.90
53876;DHT22;39789;53.216;5.624;2022-11-15T04:40:19;6.90;99.90
53876;DHT22;39789;53.216;5.624;2022-11-15T04:42:44;6.90;99.90
53876;DHT22;39789;53.216;5.624;2022-11-15T04:45:10;7.00;99.90
53876;DHT22;39789;53.216;5.624;2022-11-15T04:47:36;7.00;99.90
53876;DHT22;39789;53.216;5.624;2022-11-15T04:50:02;7.00;99.90
53876;DHT22;39789;53.216;5.624;2022-11-15T04:52:28;7.10;99.90
53876;DHT22;39789;53.216;5.624;2022-11-15T04:54:54;7.10;99.90
53876;DHT22;39789;53.216;5.624;2022-11-15T04:57:19;7.10;99.90
53876;DHT22;39789;53.216;5.624;2022-11-15T04:59:45;7.20;99.90
53876;DHT22;39789;53.216;5.624;2022-11-15T05:02:10;7.20;99.90
53876;DHT22;39789;53.216;5.624;2022-11-15T05:04:36;7.20;99.90
53876;DHT22;39789;53.216;5.624;2022-11-15T05:07:01;7.20;99.90
53876;DHT22;39789;53.216;5.624;2022-11-15T05:09:29;7.30;99.90
53876;DHT22;39789;53.216;5.624;2022-11-15T05:11:54;7.30;99.90
53876;DHT22;39789;53.216;5.624;2022-11-15T05:14:20;7.40;99.90
53876;DHT22;39789;53.216;5.624;2022-11-15T05:16:46;7.30;99.90
53876;DHT22;39789;53.216;5.624;2022-11-15T05:19:11;7.40;99.90
53876;DHT22;39789;53.216;5.624;2022-11-15T05:21:37;7.40;99.90
53876;DHT22;39789;53.216;5.624;2022-11-15T05:24:03;7.40;99.90
53876;DHT22;39789;53.216;5.624;2022-11-15T05:26:29;7.50;99.90
53876;DHT22;39789;53.216;5.624;2022-11-15T05:28:56;7.50;99.90
53876;DHT22;39789;53.216;5.624;2022-11-15T05:31:22;7.50;99.90
53876;DHT22;39789;53.216;5.624;2022-11-15T05:33:49;7.50;99.90
53876;DHT22;39789;53.216;5.624;2022-11-15T05:36:31;7.60;99.90
53876;DHT22;39789;53.216;5.624;2022-11-15T05:38:58;7.60;99.90
53876;DHT22;39789;53.216;5.624;2022-11-15T05:41:32;7.70;99.90
53876;DHT22;39789;53.216;5.624;2022-11-15T05:43:59;7.70;99.90
53876;DHT22;39789;53.216;5.624;2022-11-15T05:46:26;7.70;99.90
53876;DHT22;39789;53.216;5.624;2022-11-15T05:48:53;7.80;99.90
53876;DHT22;39789;53.216;5.624;2022-11-15T05:51:21;7.80;99.90
53876;DHT22;39789;53.216;5.624;2022-11-15T05:53:48;7.80;99.90
53876;DHT22;39789;53.216;5.624;2022-11-15T05:56:14;7.90;99.90
53876;DHT22;39789;53.216;5.624;2022-11-15T05:58:41;7.90;99.90
53876;DHT22;39789;53.216;5.624;2022-11-15T06:01:07;7.90;99.90
53876;DHT22;39789;53.216;5.624;2022-11-15T06:03:32;8.00;99.90
53876;DHT22;39789;53.216;5.624;2022-11-15T06:05:58;8.00;99.90
53876;DHT22;39789;53.216;5.624;2022-11-15T06:08:24;8.10;99.90
53876;DHT22;39789;53.216;5.624;2022-11-15T06:10:49;8.10;99.90
53876;DHT22;39789;53.216;5.624;2022-11-15T06:13:15;8.20;99.90
53876;DHT22;39789;53.216;5.624;2022-11-15T06:15:40;8.20;99.90
53876;DHT22;39789;53.216;5.624;2022-11-15T06:18:06;8.20;99.90
53876;DHT22;39789;53.216;5.624;2022-11-15T06:20:31;8.30;99.90
53876;DHT22;39789;53.216;5.624;2022-11-15T06:23:03;8.30;99.90
53876;DHT22;39789;53.216;5.624;2022-11-15T06:25:30;8.30;99.90
53876;DHT22;39789;53.216;5.624;2022-11-15T06:27:57;8.40;99.90
53876;DHT22;39789;53.216;5.624;2022-11-15T06:30:24;8.40;99.90
53876;DHT22;39789;53.216;5.624;2022-11-15T06:32:50;8.40;99.90
53876;DHT22;39789;53.216;5.624;2022-11-15T06:35:16;8.50;99.90
53876;DHT22;39789;53.216;5.624;2022-11-15T06:37:42;8.60;99.90
53876;DHT22;39789;53.216;5.624;2022-11-15T06:40:09;8.60;99.90
53876;DHT22;39789;53.216;5.624;2022-11-15T06:42:35;8.60;99.90
53876;DHT22;39789;53.216;5.624;2022-11-15T06:45:00;8.70;99.90
53876;DHT22;39789;53.216;5.624;2022-11-15T06:47:26;8.70;99.90
53876;DHT22;39789;53.216;5.624;2022-11-15T06:49:52;8.80;99.90
53876;DHT22;39789;53.216;5.624;2022-11-15T06:52:18;8.80;99.90
53876;DHT22;39789;53.216;5.624;2022-11-15T06:54:44;8.90;99.90
53876;DHT22;39789;53.216;5.624;2022-11-15T06:57:10;8.90;99.90
53876;DHT22;39789;53.216;5.624;2022-11-15T06:59:36;8.90;99.90
53876;DHT22;39789;53.216;5.624;2022-11-15T07:02:01;9.00;99.90
53876;DHT22;39789;53.216;5.624;2022-11-15T07:04:27;9.00;99.90
53876;DHT22;39789;53.216;5.624;2022-11-15T07:06:52;9.00;99.90
53876;DHT22;39789;53.216;5.624;2022-11-15T07:09:18;9.10;99.90
53876;DHT22;39789;53.216;5.624;2022-11-15T07:11:44;9.10;99.90
53876;DHT22;39789;53.216;5.624;2022-11-15T07:14:09;9.10;99.90
53876;DHT22;39789;53.216;5.624;2022-11-15T07:16:36;9.20;99.90
53876;DHT22;39789;53.216;5.624;2022-11-15T07:19:02;9.30;99.90
53876;DHT22;39789;53.216;5.624;2022-11-15T07:21:27;9.30;99.90
53876;DHT22;39789;53.216;5.624;2022-11-15T07:23:53;9.40;99.90
53876;DHT22;39789;53.216;5.624;2022-11-15T07:26:18;9.40;99.90
53876;DHT22;39789;53.216;5.624;2022-11-15T07:28:44;9.50;99.90
53876;DHT22;39789;53.216;5.624;2022-11-15T07:31:09;9.50;99.90
53876;DHT22;39789;53.216;5.624;2022-11-15T07:33:35;9.50;99.90
53876;DHT22;39789;53.216;5.624;2022-11-15T07:36:02;9.60;99.90
53876;DHT22;39789;53.216;5.624;2022-11-15T07:38:29;9.60;99.90
53876;DHT22;39789;53.216;5.624;2022-11-15T07:40:59;9.70;99.90
53876;DHT22;39789;53.216;5.624;2022-11-15T07:43:25;9.70;99.90
53876;DHT22;39789;53.216;5.624;2022-11-15T07:45:51;9.70;99.90
53876;DHT22;39789;53.216;5.624;2022-11-15T07:48:16;9.70;99.90
53876;DHT22;39789;53.216;5.624;2022-11-15T07:50:42;9.70;99.90
53876;DHT22;39789;53.216;5.624;2022-11-15T07:53:09;9.80;99.90
53876;DHT22;39789;53.216;5.624;2022-11-15T07:55:34;9.80;99.90
53876;DHT22;39789;53.216;5.624;2022-11-15T07:58:05;9.90;99.90
53876;DHT22;39789;53.216;5.624;2022-11-15T08:00:32;9.90;99.90
53876;DHT22;39789;53.216;5.624;2022-11-15T08:03:09;10.00;99.90
53876;DHT22;39789;53.216;5.624;2022-11-15T08:05:36;10.00;99.90
53876;DHT22;39789;53.216;5.624;2022-11-15T08:08:02;10.00;99.90
53876;DHT22;39789;53.216;5.624;2022-11-15T08:10:28;10.10;99.90
53876;DHT22;39789;53.216;5.624;2022-11-15T08:13:07;10.10;99.90
53876;DHT22;39789;53.216;5.624;2022-11-15T08:15:34;10.20;99.90
53876;DHT22;39789;53.216;5.624;2022-11-15T08:18:02;10.30;99.90
53876;DHT22;39789;53.216;5.624;2022-11-15T08:20:29;10.30;99.90
53876;DHT22;39789;53.216;5.624;2022-11-15T08:22:56;10.30;99.90
53876;DHT22;39789;53.216;5.624;2022-11-15T08:25:24;10.30;99.90
53876;DHT22;39789;53.216;5.624;2022-11-15T08:27:56;10.30;99.90
53876;DHT22;39789;53.216;5.624;2022-11-15T08:30:23;10.30;99.90
53876;DHT22;39789;53.216;5.624;2022-11-15T08:32:49;10.30;99.90
53876;DHT22;39789;53.216;5.624;2022-11-15T08:35:16;10.40;99.90
53876;DHT22;39789;53.216;5.624;2022-11-15T08:37:42;10.40;99.90
53876;DHT22;39789;53.216;5.624;2022-11-15T08:40:08;10.40;99.90
53876;DHT22;39789;53.216;5.624;2022-11-15T08:42:35;10.50;99.90
53876;DHT22;39789;53.216;5.624;2022-11-15T08:45:00;10.50;99.90
53876;DHT22;39789;53.216;5.624;2022-11-15T08:47:26;10.60;99.90
53876;DHT22;39789;53.216;5.624;2022-11-15T08:49:52;10.60;99.90
53876;DHT22;39789;53.216;5.624;2022-11-15T08:52:18;10.60;99.90
53876;DHT22;39789;53.216;5.624;2022-11-15T08:54:43;10.70;99.90
53876;DHT22;39789;53.216;5.624;2022-11-15T08:57:09;10.70;99.90
53876;DHT22;39789;53.216;5.624;2022-11-15T08:59:36;10.70;99.90
53876;DHT22;39789;53.216;5.624;2022-11-15T09:02:02;10.70;99.90
53876;DHT22;39789;53.216;5.624;2022-11-15T09:04:28;10.70;99.90
53876;DHT22;39789;53.216;5.624;2022-11-15T09:06:53;10.70;99.90
53876;DHT22;39789;53.216;5.624;2022-11-15T09:09:19;10.70;99.90
53876;DHT22;39789;53.216;5.624;2022-11-15T09:11:45;10.70;99.90
53876;DHT22;39789;53.216;5.624;2022-11-15T11:07:29;11.70;99.90
53876;DHT22;39789;53.216;5.624;2022-11-15T11:10:18;11.70;99.90
53876;DHT22;39789;53.216;5.624;2022-11-15T11:12:43;11.70;99.90
53876;DHT22;39789;53.216;5.624;2022-11-15T11:15:12;11.70;99.90
53876;DHT22;39789;53.216;5.624;2022-11-15T11:17:51;11.70;99.90
53876;DHT22;39789;53.216;5.624;2022-11-15T11:20:36;11.70;99.90
53876;DHT22;39789;53.216;5.624;2022-11-15T11:29:17;11.70;99.90
53876;DHT22;39789;53.216;5.624;2022-11-15T11:35:01;11.70;99.90
53876;DHT22;39789;53.216;5.624;2022-11-15T11:37:40;11.80;99.90
53876;DHT22;39789;53.216;5.624;2022-11-15T11:43:21;11.80;99.90
53876;DHT22;39789;53.216;5.624;2022-11-15T11:46:06;11.90;99.90
53876;DHT22;39789;53.216;5.624;2022-11-15T11:48:48;11.90;99.90
53876;DHT22;39789;53.216;5.624;2022-11-15T11:51:24;11.90;99.90
53876;DHT22;39789;53.216;5.624;2022-11-15T11:54:03;11.90;99.90
53876;DHT22;39789;53.216;5.624;2022-11-15T11:56:36;12.00;99.90
53876;DHT22;39789;53.216;5.624;2022-11-15T11:59:22;12.00;99.90
53876;DHT22;39789;53.216;5.624;2022-11-15T12:01:48;12.10;99.90
53876;DHT22;39789;53.216;5.624;2022-11-15T12:06:42;12.20;99.90
53876;DHT22;39789;53.216;5.624;2022-11-15T12:09:19;12.20;99.90
53876;DHT22;39789;53.216;5.624;2022-11-15T12:14:48;12.10;99.90
53876;DHT22;39789;53.216;5.624;2022-11-15T12:17:17;12.10;99.90
53876;DHT22;39789;53.216;5.624;2022-11-15T12:19:45;12.10;99.90
53876;DHT22;39789;53.216;5.624;2022-11-15T12:25:25;12.20;99.90
53876;DHT22;39789;53.216;5.624;2022-11-15T12:28:01;12.20;99.90
53876;DHT22;39789;53.216;5.624;2022-11-15T12:33:46;12.20;99.90
53876;DHT22;39789;53.216;5.624;2022-11-15T12:36:38;12.50;99.90
53876;DHT22;39789;53.216;5.624;2022-11-15T12:39:07;12.20;99.90
53876;DHT22;39789;53.216;5.624;2022-11-15T12:47:00;12.30;99.90
53876;DHT22;39789;53.216;5.624;2022-11-15T13:02:40;12.50;99.90
53876;DHT22;39789;53.216;5.624;2022-11-15T13:17:44;12.00;99.90
53876;DHT22;39789;53.216;5.624;2022-11-15T13:28:17;11.90;99.90
53876;DHT22;39789;53.216;5.624;2022-11-15T13:30:49;11.90;99.90
53876;DHT22;39789;53.216;5.624;2022-11-15T13:33:31;11.90;99.90
53876;DHT22;39789;53.216;5.624;2022-11-15T13:36:22;11.90;99.90
53876;DHT22;39789;53.216;5.624;2022-11-15T13:38:58;11.80;99.90
53876;DHT22;39789;53.216;5.624;2022-11-15T13:41:27;11.80;99.90
53876;DHT22;39789;53.216;5.624;2022-11-15T13:43:54;11.80;99.90
53876;DHT22;39789;53.216;5.624;2022-11-15T13:46:28;11.90;99.90
53876;DHT22;39789;53.216;5.624;2022-11-15T13:49:07;11.80;99.90
53876;DHT22;39789;53.216;5.624;2022-11-15T13:51:50;11.80;99.90
53876;DHT22;39789;53.216;5.624;2022-11-15T13:54:31;11.80;99.90
53876;DHT22;39789;53.216;5.624;2022-11-15T13:57:03;11.70;99.90
53876;DHT22;39789;53.216;5.624;2022-11-15T14:01:59;11.60;99.90
53876;DHT22;39789;53.216;5.624;2022-11-15T14:04:28;11.60;99.90
53876;DHT22;39789;53.216;5.624;2022-11-15T14:06:58;11.50;99.90
53876;DHT22;39789;53.216;5.624;2022-11-15T14:09:39;11.50;99.90
53876;DHT22;39789;53.216;5.624;2022-11-15T14:12:34;11.50;99.90
53876;DHT22;39789;53.216;5.624;2022-11-15T14:17:45;11.40;99.90
53876;DHT22;39789;53.216;5.624;2022-11-15T14:20:31;11.30;99.90
53876;DHT22;39789;53.216;5.624;2022-11-15T14:23:19;11.30;99.90
53876;DHT22;39789;53.216;5.624;2022-11-15T14:25:56;11.20;99.90
53876;DHT22;39789;53.216;5.624;2022-11-15T14:30:47;11.10;99.90
53876;DHT22;39789;53.216;5.624;2022-11-15T14:33:29;11.10;99.90
53876;DHT22;39789;53.216;5.624;2022-11-15T14:35:56;11.00;99.90
53876;DHT22;39789;53.216;5.624;2022-11-15T14:38:24;11.00;99.90
53876;DHT22;39789;53.216;5.624;2022-11-15T14:40:50;10.90;99.90
53876;DHT22;39789;53.216;5.624;2022-11-15T14:43:15;10.90;99.90
53876;DHT22;39789;53.216;5.624;2022-11-15T14:45:41;10.90;99.90
53876;DHT22;39789;53.216;5.624;2022-11-15T14:48:07;10.90;99.90
53876;DHT22;39789;53.216;5.624;2022-11-15T14:50:34;10.80;99.90
53876;DHT22;39789;53.216;5.624;2022-11-15T14:53:00;10.80;99.90
53876;DHT22;39789;53.216;5.624;2022-11-15T14:55:30;10.80;99.90
53876;DHT22;39789;53.216;5.624;2022-11-15T14:58:02;10.80;99.90
53876;DHT22;39789;53.216;5.624;2022-11-15T15:00:29;10.70;99.90
53876;DHT22;39789;53.216;5.624;2022-11-15T15:02:55;10.60;99.90
53876;DHT22;39789;53.216;5.624;2022-11-15T15:05:35;10.60;99.90
53876;DHT22;39789;53.216;5.624;2022-11-15T15:08:01;10.60;99.90
53876;DHT22;39789;53.216;5.624;2022-11-15T15:10:44;10.60;99.90
53876;DHT22;39789;53.216;5.624;2022-11-15T15:13:20;10.50;99.90
53876;DHT22;39789;53.216;5.624;2022-11-15T15:15:47;10.50;99.90
53876;DHT22;39789;53.216;5.624;2022-11-15T15:18:13;10.40;99.90
53876;DHT22;39789;53.216;5.624;2022-11-15T15:20:40;10.30;99.90
53876;DHT22;39789;53.216;5.624;2022-11-15T15:23:17;10.20;99.90
53876;DHT22;39789;53.216;5.624;2022-11-15T15:25:44;10.10;99.90
53876;DHT22;39789;53.216;5.624;2022-11-15T15:28:11;10.10;99.90
53876;DHT22;39789;53.216;5.624;2022-11-15T15:30:37;10.00;99.90
53876;DHT22;39789;53.216;5.624;2022-11-15T15:33:02;10.00;99.90
53876;DHT22;39789;53.216;5.624;2022-11-15T15:35:30;9.90;99.90
53876;DHT22;39789;53.216;5.624;2022-11-15T15:37:56;9.90;99.90
53876;DHT22;39789;53.216;5.624;2022-11-15T15:40:23;9.80;99.90
53876;DHT22;39789;53.216;5.624;2022-11-15T15:42:50;9.80;99.90
53876;DHT22;39789;53.216;5.624;2022-11-15T15:45:17;9.80;99.90
53876;DHT22;39789;53.216;5.624;2022-11-15T15:47:43;9.70;99.90
53876;DHT22;39789;53.216;5.624;2022-11-15T15:50:20;9.60;99.90
53876;DHT22;39789;53.216;5.624;2022-11-15T15:52:45;9.60;99.90
53876;DHT22;39789;53.216;5.624;2022-11-15T15:55:11;9.50;99.90
53876;DHT22;39789;53.216;5.624;2022-11-15T15:57:37;9.50;99.90
53876;DHT22;39789;53.216;5.624;2022-11-15T16:00:04;9.50;99.90
53876;DHT22;39789;53.216;5.624;2022-11-15T16:02:30;9.50;99.90
53876;DHT22;39789;53.216;5.624;2022-11-15T16:04:55;9.50;99.90
53876;DHT22;39789;53.216;5.624;2022-11-15T16:07:22;9.40;99.90
53876;DHT22;39789;53.216;5.624;2022-11-15T16:09:49;9.50;99.90
53876;DHT22;39789;53.216;5.624;2022-11-15T16:12:29;9.50;99.90
53876;DHT22;39789;53.216;5.624;2022-11-15T16:14:55;9.50;99.90
53876;DHT22;39789;53.216;5.624;2022-11-15T16:17:26;9.60;99.90
53876;DHT22;39789;53.216;5.624;2022-11-15T16:19:51;9.60;99.90
53876;DHT22;39789;53.216;5.624;2022-11-15T16:22:17;9.60;99.90
53876;DHT22;39789;53.216;5.624;2022-11-15T16:24:43;9.60;99.90
53876;DHT22;39789;53.216;5.624;2022-11-15T16:27:16;9.70;99.90
53876;DHT22;39789;53.216;5.624;2022-11-15T16:29:46;9.70;99.90
53876;DHT22;39789;53.216;5.624;2022-11-15T16:32:12;9.80;99.90
53876;DHT22;39789;53.216;5.624;2022-11-15T16:34:38;9.80;99.90
53876;DHT22;39789;53.216;5.624;2022-11-15T16:37:04;9.80;99.90
53876;DHT22;39789;53.216;5.624;2022-11-15T16:39:30;9.90;99.90
53876;DHT22;39789;53.216;5.624;2022-11-15T16:41:57;10.00;99.90
53876;DHT22;39789;53.216;5.624;2022-11-15T16:44:23;10.00;99.90
53876;DHT22;39789;53.216;5.624;2022-11-15T16:46:49;10.10;99.90
53876;DHT22;39789;53.216;5.624;2022-11-15T16:49:17;10.10;99.90
53876;DHT22;39789;53.216;5.624;2022-11-15T16:51:45;10.00;99.90
53876;DHT22;39789;53.216;5.624;2022-11-15T16:54:11;10.20;99.90
53876;DHT22;39789;53.216;5.624;2022-11-15T16:56:37;10.20;99.90
53876;DHT22;39789;53.216;5.624;2022-11-15T16:59:03;10.20;99.90
53876;DHT22;39789;53.216;5.624;2022-11-15T17:01:32;10.20;99.90
53876;DHT22;39789;53.216;5.624;2022-11-15T17:03:58;10.20;99.90
53876;DHT22;39789;53.216;5.624;2022-11-15T17:06:25;10.30;99.90
53876;DHT22;39789;53.216;5.624;2022-11-15T17:08:51;10.30;99.90
53876;DHT22;39789;53.216;5.624;2022-11-15T17:11:19;10.30;99.90
53876;DHT22;39789;53.216;5.624;2022-11-15T17:13:45;10.30;99.90
53876;DHT22;39789;53.216;5.624;2022-11-15T17:16:13;10.40;99.90
53876;DHT22;39789;53.216;5.624;2022-11-15T17:18:40;10.40;99.90
53876;DHT22;39789;53.216;5.624;2022-11-15T17:21:11;10.40;99.90
53876;DHT22;39789;53.216;5.624;2022-11-15T17:23:37;10.50;99.90
53876;DHT22;39789;53.216;5.624;2022-11-15T17:26:04;10.50;99.90
53876;DHT22;39789;53.216;5.624;2022-11-15T17:28:33;10.50;99.90
53876;DHT22;39789;53.216;5.624;2022-11-15T17:31:00;10.50;99.90
53876;DHT22;39789;53.216;5.624;2022-11-15T17:33:26;10.50;99.90
53876;DHT22;39789;53.216;5.624;2022-11-15T17:36:00;10.60;99.90
53876;DHT22;39789;53.216;5.624;2022-11-15T17:38:26;10.60;99.90
53876;DHT22;39789;53.216;5.624;2022-11-15T17:41:06;10.60;99.90
53876;DHT22;39789;53.216;5.624;2022-11-15T17:43:34;10.60;99.90
53876;DHT22;39789;53.216;5.624;2022-11-15T17:46:05;10.60;99.90
53876;DHT22;39789;53.216;5.624;2022-11-15T17:48:31;10.70;99.90
53876;DHT22;39789;53.216;5.624;2022-11-15T17:51:01;10.60;99.90
53876;DHT22;39789;53.216;5.624;2022-11-15T17:53:31;10.70;99.90
53876;DHT22;39789;53.216;5.624;2022-11-15T17:56:00;10.70;99.90
53876;DHT22;39789;53.216;5.624;2022-11-15T17:58:26;10.70;99.90
53876;DHT22;39789;53.216;5.624;2022-11-15T18:00:52;10.70;99.90
53876;DHT22;39789;53.216;5.624;2022-11-15T18:03:17;10.80;99.90
53876;DHT22;39789;53.216;5.624;2022-11-15T18:05:43;10.80;99.90
53876;DHT22;39789;53.216;5.624;2022-11-15T18:08:10;10.80;99.90
53876;DHT22;39789;53.216;5.624;2022-11-15T18:10:36;10.80;99.90
53876;DHT22;39789;53.216;5.624;2022-11-15T18:13:02;10.80;99.90
53876;DHT22;39789;53.216;5.624;2022-11-15T18:15:27;10.80;99.90
53876;DHT22;39789;53.216;5.624;2022-11-15T18:17:53;10.80;99.90
53876;DHT22;39789;53.216;5.624;2022-11-15T18:20:19;10.80;99.90
53876;DHT22;39789;53.216;5.624;2022-11-15T18:22:45;10.80;99.90
53876;DHT22;39789;53.216;5.624;2022-11-15T18:25:11;10.90;99.90
53876;DHT22;39789;53.216;5.624;2022-11-15T18:27:43;10.90;99.90
53876;DHT22;39789;53.216;5.624;2022-11-15T18:30:09;10.90;99.90
53876;DHT22;39789;53.216;5.624;2022-11-15T18:32:34;10.90;99.90
53876;DHT22;39789;53.216;5.624;2022-11-15T18:35:00;10.90;99.90
53876;DHT22;39789;53.216;5.624;2022-11-15T18:37:25;11.00;99.90
53876;DHT22;39789;53.216;5.624;2022-11-15T18:39:51;11.00;99.90
53876;DHT22;39789;53.216;5.624;2022-11-15T18:42:16;11.00;99.90
53876;DHT22;39789;53.216;5.624;2022-11-15T18:44:42;11.00;99.90
53876;DHT22;39789;53.216;5.624;2022-11-15T18:47:07;11.00;99.90
53876;DHT22;39789;53.216;5.624;2022-11-15T18:49:33;11.10;99.90
53876;DHT22;39789;53.216;5.624;2022-11-15T18:51:59;11.10;99.90
53876;DHT22;39789;53.216;5.624;2022-11-15T18:54:24;11.10;99.90
53876;DHT22;39789;53.216;5.624;2022-11-15T18:56:50;11.00;99.90
53876;DHT22;39789;53.216;5.624;2022-11-15T18:59:15;11.00;99.90
53876;DHT22;39789;53.216;5.624;2022-11-15T19:01:43;11.00;99.90
53876;DHT22;39789;53.216;5.624;2022-11-15T19:04:14;10.90;99.90
53876;DHT22;39789;53.216;5.624;2022-11-15T19:06:43;10.80;99.90
53876;DHT22;39789;53.216;5.624;2022-11-15T19:09:10;10.90;99.90
53876;DHT22;39789;53.216;5.624;2022-11-15T19:11:38;10.90;99.90